METAR stanice u blizini

 

LYBE - Beograd / Surčin, Srbija
Ažurirano: 19/08/2019 11:30
Vedro
Vedro
 Pravac vetra JI
Vetar: JI 9 km/h
Temperatura: 31°C
Tačka rose: 13°C
Vlažnost: 33%
Pritisak: 1017 hPa
Pregled: Vedro
Vidljivost: greater than 10 km
2019/08/19 09:30 LYBE 190930Z 13005KT 080V180 CAVOK 31/13 Q1017 NOSIG
LYBT - Beograd / Batajnica, Srbija
Ažurirano: 19/08/2019 11:30
Vedro
Vedro
 Pravac vetra ISI
Vetar: ISI 11 km/h
Temperatura: 31°C
Tačka rose: 12°C
Vlažnost: 31%
Pritisak: 1017 hPa
Pregled: Vedro
Vidljivost: greater than 10 km
2019/08/19 09:30 LYBT 190930Z 06006KT 010V120 CAVOK 31/12 Q1017 NOSIG
LYVR - Vršac, Srbija
Ažurirano: 19/08/2019 11:30
Vedro
Vedro
 Pravac vetra J
Vetar: J 9 km/h
Temperatura: 31°C
Tačka rose: 12°C
Vlažnost: 31%
Pritisak: 1017 hPa
Pregled: Vedro
Vidljivost: greater than 10 km
2019/08/19 09:30 LYVR 190930Z 18005KT 110V260 CAVOK 31/12 Q1017 NOSIG
 
LYKV - Lađevci, Srbija
Ažurirano: 19/08/2019 11:30
Vedro
Vedro
 Pravac vetra varies
Vetar: varies 4 km/h
Temperatura: 28°C
Heat Index: 27°C
Tačka rose: 13°C
Vlažnost: 40%
Pritisak: 1018 hPa
Pregled: Vedro
Vidljivost: greater than 10 km
2019/08/19 09:30 LYKV 190930Z VRB02KT CAVOK 28/13 Q1018 NOSIG
LYNI - Niš, Srbija
Ažurirano: 19/08/2019 11:30
Vedro
Vedro
 Pravac vetra varies
Vetar: varies 4 km/h
Temperatura: 28°C
Tačka rose: 11°C
Vlažnost: 35%
Pritisak: 1018 hPa
Pregled: Vedro
Vidljivost: greater than 10 km
2019/08/19 09:30 LYNI 190930Z VRB02KT CAVOK 28/11 Q1018 NOSIG
BKPR - Priština, Srbija
Ažurirano: 19/08/2019 11:30
Vedro
Vedro
 Pravac vetra varies
Vetar: varies 6 km/h
Temperatura: 27°C
Tačka rose: 7°C
Vlažnost: 28%
Pritisak: 1019 hPa
Pregled: Vedro
Vidljivost: greater than 10 km
2019/08/19 09:30 BKPR 190930Z VRB03KT CAVOK 27/07 Q1019 NOSIG
 
LHPP - Pecs / Pogany, Hungary
Ažurirano: 19/08/2019 11:15
Vedro
Vedro
 Pravac vetra Z
Vetar: Z 4 km/h
Temperatura: 28°C
Heat Index: 28°C
Tačka rose: 16°C
Vlažnost: 48%
Pritisak: 1017 hPa
Pregled: Vedro
Vidljivost: greater than 10 km
2019/08/19 09:15 LHPP 190915Z 26002KT CAVOK 28/16 Q1017
LHUD - Szeged, Hungary
Ažurirano: 04/07/2019 01:45
NOT Current
Vedro
Vedro
 Pravac vetra S
Vetar: S 7 km/h
Temperatura: 18°C
Tačka rose: 13°C
Vlažnost: 73%
Pritisak: 1019 hPa
Pregled: Vedro
Vidljivost: greater than 10 km
2019/07/03 23:45 LHUD 032345Z 35004KT CAVOK 18/13 Q1019
LRTR - Timisoara, Romania
Ažurirano: 19/08/2019 11:30
Vedro
Vedro
 Pravac vetra JI
Vetar: JI 13 km/h
Temperatura: 30°C
Tačka rose: 12°C
Vlažnost: 33%
Pritisak: 1017 hPa
Pregled: Vedro
Vidljivost: greater than 10 km
2019/08/19 09:30 LRTR 190930Z 13007KT 090V160 CAVOK 30/12 Q1017 NOSIG
 
LRCV - Craiova, Romania
Ažurirano: 19/08/2019 11:30
Vedro
Vedro
 Pravac vetra I
Vetar: I 9 km/h
Temperatura: 29°C
Tačka rose: 12°C
Vlažnost: 35%
Pritisak: 1018 hPa
Pregled: Vedro
Vidljivost: greater than 10 km
2019/08/19 09:30 LRCV 190930Z 08005KT 030V150 CAVOK 29/12 Q1018
LBSF - Sofia, Bulgaria
Ažurirano: 19/08/2019 11:30
Vedro
Vedro
 Pravac vetra IJI
Vetar: IJI 13 km/h
Temperatura: 27°C
Tačka rose: 9°C
Vlažnost: 32%
Pritisak: 1020 hPa
Pregled: Vedro
Vidljivost: greater than 10 km
2019/08/19 09:30 LBSF 190930Z 12007KT 060V190 CAVOK 27/09 Q1020 NOSIG
LWSK - Skoplje, Makedonija
Ažurirano: 19/08/2019 11:30
Vedro
Vedro
 Pravac vetra varies
Vetar: varies 4 km/h
Temperatura: 28°C
Tačka rose: 8°C
Vlažnost: 28%
Pritisak: 1018 hPa
Pregled: Vedro
Vidljivost: greater than 10 km
2019/08/19 09:30 LWSK 190930Z VRB02KT CAVOK 28/08 Q1018 NOSIG
 
LYPG - Podgorica, Crna Gora
Ažurirano: 19/08/2019 11:30
Vedro
Vedro
 Pravac vetra varies
Vetar: varies 4 km/h
Temperatura: 30°C
Heat Index: 29°C
Tačka rose: 15°C
Vlažnost: 40%
Pritisak: 1016 hPa
Pregled: Vedro
Vidljivost: greater than 10 km
2019/08/19 09:30 LYPG 190930Z VRB02KT CAVOK 30/15 Q1016 NOSIG
LQSA - Sarajevo, Bosna i Hercegovina
Ažurirano: 19/08/2019 11:30
Vedro
Vedro
 Pravac vetra varies
Vetar: varies 6 km/h
Temperatura: 25°C
Tačka rose: 12°C
Vlažnost: 44%
Pritisak: 1019 hPa
Pregled: Vedro
Vidljivost: greater than 10 km
2019/08/19 09:30 LQSA 190930Z VRB03KT CAVOK 25/12 Q1019 NOSIG
LDOS - Osijek, Hrvatksa
Ažurirano: 19/08/2019 11:30
Vedro
Vedro
 Pravac vetra varies
Vetar: varies 4 km/h
Temperatura: 28°C
Heat Index: 28°C
Tačka rose: 15°C
Vlažnost: 45%
Pritisak: 1017 hPa
Pregled: Vedro
Vidljivost: greater than 10 km
2019/08/19 09:30 LDOS 190930Z VRB02KT CAVOK 28/15 Q1017